createdAt,value
2022-08-08T00:00:56.161Z,22.17
2022-08-08T00:03:32.298Z,21.91
2022-08-08T00:06:04.532Z,22.22
2022-08-08T00:08:33.491Z,22.34
2022-08-08T00:11:07.960Z,22.17
2022-08-08T00:14:16.380Z,22.14
2022-08-08T00:16:34.396Z,22.17
2022-08-08T00:19:04.821Z,22.13
2022-08-08T00:21:39.784Z,22.17
2022-08-08T00:24:16.799Z,22.32
2022-08-08T00:26:46.549Z,22.23
2022-08-08T00:29:17.541Z,22.42
2022-08-08T00:32:20.362Z,22.25
2022-08-08T00:35:18.375Z,22.35
2022-08-08T00:38:02.425Z,22.53
2022-08-08T00:41:09.930Z,22.42
2022-08-08T00:43:58.797Z,22.63
2022-08-08T00:46:57.438Z,22.41
2022-08-08T00:49:32.240Z,22.53
2022-08-08T00:52:06.888Z,22.29
2022-08-08T00:54:42.777Z,22.30
2022-08-08T00:57:29.431Z,22.35
2022-08-08T01:00:06.497Z,22.37
2022-08-08T01:03:59.988Z,21.85
2022-08-08T01:05:59.319Z,22.12
2022-08-08T01:08:51.936Z,22.25
2022-08-08T01:11:34.944Z,21.81
2022-08-08T01:14:16.109Z,21.91
2022-08-08T01:16:57.492Z,21.81
2022-08-08T01:19:52.481Z,21.85
2022-08-08T01:22:42.198Z,21.84
2022-08-08T01:25:39.934Z,21.93
2022-08-08T01:28:11.535Z,22.24
2022-08-08T01:31:02.397Z,22.12
2022-08-08T01:33:59.995Z,21.69
2022-08-08T01:36:48.543Z,21.74
2022-08-08T01:39:23.879Z,21.04
2022-08-08T01:41:58.888Z,21.38
2022-08-08T01:44:35.356Z,20.95
2022-08-08T01:48:23.692Z,21.12
2022-08-08T01:50:19.739Z,20.53
2022-08-08T01:54:19.415Z,20.63
2022-08-08T01:56:27.197Z,20.73
2022-08-08T01:58:46.406Z,20.79
2022-08-08T02:01:18.283Z,21.38
2022-08-08T02:03:57.499Z,21.35
2022-08-08T02:06:32.538Z,21.22
2022-08-08T02:09:16.093Z,20.25
2022-08-08T02:11:52.977Z,20.31
2022-08-08T02:14:30.409Z,20.70
2022-08-08T02:16:59.475Z,20.57
2022-08-08T02:20:07.142Z,20.42
2022-08-08T02:22:34.166Z,20.33
2022-08-08T02:25:21.720Z,20.22
2022-08-08T02:27:53.397Z,20.23
2022-08-08T02:30:25.405Z,20.25
2022-08-08T02:33:07.724Z,20.33
2022-08-08T02:36:03.396Z,20.21
2022-08-08T02:38:49.185Z,20.28
2022-08-08T02:41:58.676Z,20.39
2022-08-08T02:44:58.121Z,20.19
2022-08-08T02:47:55.062Z,20.32
2022-08-08T02:50:30.471Z,20.12
2022-08-08T02:53:06.425Z,20.22
2022-08-08T02:56:08.735Z,19.70
2022-08-08T02:58:49.625Z,19.77
2022-08-08T03:01:32.693Z,20.00
2022-08-08T03:05:04.102Z,19.98
2022-08-08T03:07:58.014Z,19.89
2022-08-08T03:10:36.229Z,20.08
2022-08-08T03:15:53.488Z,20.16
2022-08-08T03:16:37.506Z,19.78
2022-08-08T03:19:23.856Z,19.20
2022-08-08T03:21:58.265Z,19.14
2022-08-08T03:24:35.249Z,19.41
2022-08-08T03:27:07.934Z,19.16
2022-08-08T03:29:55.102Z,19.11
2022-08-08T03:32:41.831Z,19.15
2022-08-08T03:35:15.847Z,19.19
2022-08-08T03:38:54.392Z,19.02
2022-08-08T03:40:34.634Z,19.19
2022-08-08T03:43:16.784Z,19.13
2022-08-08T03:46:03.244Z,18.86
2022-08-08T03:49:09.910Z,19.04
2022-08-08T03:51:40.043Z,19.11
2022-08-08T03:54:08.903Z,18.68
2022-08-08T03:56:37.909Z,18.59
2022-08-08T03:59:07.468Z,18.52
2022-08-08T04:02:23.003Z,18.78
2022-08-08T04:04:40.458Z,18.63
2022-08-08T04:07:09.523Z,18.76
2022-08-08T04:09:58.718Z,19.01
2022-08-08T04:12:29.325Z,19.52
2022-08-08T04:14:57.109Z,19.58
2022-08-08T04:17:58.295Z,19.25
2022-08-08T04:20:12.534Z,19.44
2022-08-08T04:22:40.353Z,19.85
2022-08-08T04:25:15.328Z,19.85
2022-08-08T04:28:03.493Z,19.71
2022-08-08T04:30:39.908Z,21.07
2022-08-08T04:33:15.780Z,20.74
2022-08-08T04:35:51.108Z,21.13
2022-08-08T04:38:21.445Z,20.84
2022-08-08T04:40:53.656Z,20.58
2022-08-08T04:43:31.273Z,21.13
2022-08-08T04:46:00.990Z,21.08
2022-08-08T04:48:31.605Z,21.22
2022-08-08T04:51:01.332Z,21.06
2022-08-08T04:54:36.447Z,20.65
2022-08-08T04:56:18.241Z,20.39
2022-08-08T04:58:48.439Z,20.08
2022-08-08T05:01:18.614Z,20.62
2022-08-08T05:04:10.825Z,20.55
2022-08-08T05:06:36.459Z,20.95
2022-08-08T05:09:06.859Z,20.88
2022-08-08T05:11:38.583Z,21.00
2022-08-08T05:14:08.570Z,21.40
2022-08-08T05:16:53.369Z,21.43
2022-08-08T05:20:09.938Z,21.99
2022-08-08T05:22:20.207Z,21.35
2022-08-08T05:24:49.289Z,21.43
2022-08-08T05:27:17.488Z,19.89
2022-08-08T05:29:51.748Z,21.42
2022-08-08T05:32:27.405Z,21.42
2022-08-08T05:34:59.161Z,21.71
2022-08-08T05:37:49.262Z,21.44
2022-08-08T05:40:27.757Z,21.07
2022-08-08T05:42:59.217Z,21.77
2022-08-08T05:45:42.867Z,22.38
2022-08-08T05:48:28.858Z,22.47
2022-08-08T05:51:15.435Z,22.17
2022-08-08T05:54:26.177Z,22.31
2022-08-08T05:56:32.186Z,22.78
2022-08-08T05:59:03.670Z,22.69
2022-08-08T06:01:57.487Z,22.73
2022-08-08T06:04:26.724Z,22.56
2022-08-08T06:06:56.397Z,23.06
2022-08-08T06:09:58.019Z,23.88
2022-08-08T06:12:30.948Z,24.00
2022-08-08T06:14:59.692Z,24.09
2022-08-08T06:17:50.176Z,24.20
2022-08-08T06:20:21.003Z,24.21
2022-08-08T06:22:52.246Z,23.17
2022-08-08T06:25:33.128Z,24.40
2022-08-08T06:28:10.011Z,24.48
2022-08-08T06:30:37.987Z,24.52
2022-08-08T06:33:09.473Z,24.55
2022-08-08T06:36:06.700Z,24.77
2022-08-08T06:38:27.787Z,25.09
2022-08-08T06:40:58.281Z,24.64
2022-08-08T06:43:35.653Z,24.92
2022-08-08T06:46:03.592Z,23.83
2022-08-08T06:48:33.319Z,24.11
2022-08-08T06:51:07.721Z,24.68
2022-08-08T06:53:40.142Z,24.60
2022-08-08T06:56:19.665Z,25.03
2022-08-08T06:58:51.308Z,25.15
2022-08-08T07:02:17.356Z,24.91
2022-08-08T07:04:35.340Z,24.66
2022-08-08T07:07:01.672Z,24.37
2022-08-08T07:09:41.938Z,24.76
2022-08-08T07:12:30.604Z,24.94
2022-08-08T07:15:00.820Z,24.84
2022-08-08T07:17:31.792Z,24.65
2022-08-08T07:20:26.580Z,24.35
2022-08-08T07:23:02.178Z,24.35
2022-08-08T07:25:32.386Z,24.18
2022-08-08T07:28:18.610Z,24.49
2022-08-08T07:30:47.721Z,24.56
2022-08-08T07:33:19.182Z,24.96
2022-08-08T07:35:49.260Z,25.12
2022-08-08T07:38:25.747Z,24.87
2022-08-08T07:40:55.344Z,25.05
2022-08-08T07:43:35.490Z,25.15
2022-08-08T07:46:23.585Z,25.55
2022-08-08T07:48:56.714Z,25.63
2022-08-08T07:51:45.312Z,25.50
2022-08-08T07:54:24.126Z,25.84
2022-08-08T07:57:08.971Z,25.94
2022-08-08T07:59:40.641Z,25.54
2022-08-08T08:02:34.683Z,25.76
2022-08-08T08:05:01.126Z,25.31
2022-08-08T08:07:38.796Z,25.42
2022-08-08T08:10:07.429Z,25.71
2022-08-08T08:12:43.603Z,25.77
2022-08-08T08:15:16.947Z,25.83
2022-08-08T08:17:49.103Z,25.86
2022-08-08T08:20:26.417Z,25.92
2022-08-08T08:22:59.891Z,25.74
2022-08-08T08:25:42.874Z,25.62
2022-08-08T08:28:21.228Z,25.82
2022-08-08T08:30:53.145Z,25.70
2022-08-08T08:33:21.306Z,25.52
2022-08-08T08:36:19.270Z,25.50
2022-08-08T08:38:49.522Z,25.96
2022-08-08T08:41:19.995Z,25.83
2022-08-08T08:43:51.997Z,26.18
2022-08-08T08:46:20.351Z,26.12
2022-08-08T08:48:53.836Z,26.15
2022-08-08T08:51:25.842Z,26.01
2022-08-08T08:54:00.945Z,24.80
2022-08-08T08:56:31.002Z,26.43
2022-08-08T08:59:01.482Z,26.00
2022-08-08T09:01:30.660Z,26.01
2022-08-08T09:04:01.422Z,25.90
2022-08-08T09:06:34.003Z,25.73
2022-08-08T09:09:35.068Z,26.12
2022-08-08T09:12:07.876Z,26.58
2022-08-08T09:14:42.584Z,26.45
2022-08-08T09:17:18.266Z,26.50
2022-08-08T09:22:00.862Z,26.82
2022-08-08T09:22:35.957Z,26.89
2022-08-08T09:25:06.277Z,27.03
2022-08-08T09:27:56.035Z,26.77
2022-08-08T09:30:24.159Z,27.03
2022-08-08T09:33:54.362Z,27.36
2022-08-08T09:35:48.971Z,27.34
2022-08-08T09:38:22.877Z,26.44
2022-08-08T09:40:58.571Z,26.49
2022-08-08T09:44:05.479Z,27.07
2022-08-08T09:46:30.699Z,26.87
2022-08-08T09:49:04.273Z,26.87
2022-08-08T09:52:06.116Z,26.90
2022-08-08T09:54:37.600Z,26.88
2022-08-08T09:57:16.106Z,26.72
2022-08-08T10:00:01.839Z,26.63
2022-08-08T10:02:37.074Z,26.45
2022-08-08T10:05:14.424Z,26.31
2022-08-08T10:08:01.909Z,26.86
2022-08-08T10:10:36.759Z,27.18
2022-08-08T10:13:16.960Z,26.98
2022-08-08T10:15:58.928Z,27.23
2022-08-08T10:18:32.859Z,27.31
2022-08-08T10:21:07.365Z,27.75
2022-08-08T10:23:57.813Z,27.79
2022-08-08T10:26:56.669Z,27.60
2022-08-08T10:29:21.096Z,27.09
2022-08-08T10:32:15.413Z,25.58
2022-08-08T10:35:00.399Z,27.62
2022-08-08T10:37:35.225Z,27.98
2022-08-08T10:40:07.221Z,27.93
2022-08-08T10:42:37.351Z,27.51
2022-08-08T10:45:21.969Z,27.29
2022-08-08T10:47:55.581Z,27.22
2022-08-08T10:50:23.949Z,27.78
2022-08-08T10:52:51.987Z,27.83
2022-08-08T10:55:40.048Z,28.48
2022-08-08T10:58:11.798Z,27.60
2022-08-08T11:00:54.291Z,27.88
2022-08-08T11:04:00.425Z,27.44
2022-08-08T11:06:30.810Z,28.03
2022-08-08T11:09:02.030Z,28.10
2022-08-08T11:12:04.686Z,27.94
2022-08-08T11:14:27.684Z,27.98
2022-08-08T11:16:57.029Z,28.60
2022-08-08T11:19:31.720Z,28.96
2022-08-08T11:22:01.351Z,29.73
2022-08-08T11:24:42.312Z,29.60
2022-08-08T11:27:19.546Z,29.31
2022-08-08T11:30:19.310Z,29.52
2022-08-08T11:32:47.538Z,28.94
2022-08-08T11:35:24.921Z,28.13
2022-08-08T11:38:38.509Z,28.86
2022-08-08T11:40:55.866Z,28.49
2022-08-08T11:43:25.977Z,29.43
2022-08-08T11:46:18.335Z,30.16
2022-08-08T11:48:57.811Z,29.50
2022-08-08T11:51:38.940Z,29.65
2022-08-08T11:54:26.985Z,29.81
2022-08-08T11:56:58.300Z,29.55
2022-08-08T12:00:00.366Z,29.21
2022-08-08T12:02:35.879Z,29.09
2022-08-08T12:05:12.225Z,29.17
2022-08-08T12:07:49.681Z,29.36
2022-08-08T12:10:20.944Z,30.04
2022-08-08T12:12:51.795Z,30.19
2022-08-08T12:15:28.521Z,29.43
2022-08-08T12:17:56.230Z,30.13
2022-08-08T12:20:26.206Z,29.82
2022-08-08T12:22:54.434Z,29.95
2022-08-08T12:25:29.727Z,31.47
2022-08-08T12:28:14.404Z,31.41
2022-08-08T12:30:47.890Z,30.97
2022-08-08T12:33:20.674Z,30.73
2022-08-08T12:35:52.040Z,30.98
2022-08-08T12:38:30.534Z,29.97
2022-08-08T12:41:10.584Z,29.86
2022-08-08T12:44:00.067Z,29.42
2022-08-08T12:46:29.375Z,30.37
2022-08-08T12:51:59.204Z,30.56
2022-08-08T12:54:33.312Z,30.48
2022-08-08T12:57:14.462Z,30.76
2022-08-08T13:00:04.444Z,30.33
2022-08-08T13:02:37.891Z,30.62
2022-08-08T13:05:27.032Z,30.98
2022-08-08T13:08:20.544Z,30.96
2022-08-08T13:10:56.304Z,31.50
2022-08-08T13:13:28.434Z,31.69
2022-08-08T13:16:17.451Z,31.77
2022-08-08T13:18:56.970Z,32.62
2022-08-08T13:21:48.658Z,32.85
2022-08-08T13:24:18.566Z,31.32
2022-08-08T13:27:06.117Z,30.52
2022-08-08T13:29:48.739Z,30.31
2022-08-08T13:32:23.876Z,30.42
2022-08-08T13:34:54.876Z,30.17
2022-08-08T13:37:51.649Z,30.58
2022-08-08T13:40:27.140Z,30.76
2022-08-08T13:42:55.965Z,31.50
2022-08-08T13:45:26.282Z,32.56
2022-08-08T13:47:58.222Z,32.95
2022-08-08T13:50:36.960Z,31.34
2022-08-08T13:53:23.097Z,31.35
2022-08-08T13:55:59.482Z,31.99
2022-08-08T13:58:28.937Z,31.64
2022-08-08T14:00:56.873Z,31.87
2022-08-08T14:03:53.847Z,30.99
2022-08-08T14:06:33.230Z,31.14
2022-08-08T14:09:24.670Z,30.92
2022-08-08T14:11:51.250Z,30.74
2022-08-08T14:14:26.325Z,30.70
2022-08-08T14:16:55.301Z,30.83
2022-08-08T14:19:56.274Z,30.93
2022-08-08T14:22:22.312Z,31.04
2022-08-08T14:24:50.783Z,31.29
2022-08-08T14:27:27.232Z,31.58
2022-08-08T14:30:00.525Z,31.98
2022-08-08T14:32:30.541Z,31.92
2022-08-08T14:35:07.440Z,32.41
2022-08-08T14:37:43.132Z,32.31
2022-08-08T14:40:29.715Z,33.05
2022-08-08T14:42:59.574Z,32.49
2022-08-08T14:45:47.023Z,31.82
2022-08-08T14:48:34.346Z,30.78
2022-08-08T14:51:06.618Z,30.57
2022-08-08T14:53:37.273Z,30.83
2022-08-08T14:56:24.810Z,31.12
2022-08-08T14:58:54.698Z,31.83
2022-08-08T15:01:37.101Z,31.35
2022-08-08T15:04:09.712Z,32.95
2022-08-08T15:06:38.904Z,32.62
2022-08-08T15:09:08.436Z,32.10
2022-08-08T15:11:43.208Z,32.16
2022-08-08T15:14:26.590Z,32.52
2022-08-08T15:16:55.065Z,32.55
2022-08-08T15:19:27.962Z,32.42
2022-08-08T15:21:55.873Z,32.59
2022-08-08T15:24:31.292Z,32.27
2022-08-08T15:27:11.926Z,31.36
2022-08-08T15:29:51.010Z,31.71
2022-08-08T15:32:23.193Z,31.60
2022-08-08T15:34:53.082Z,31.07
2022-08-08T15:37:20.810Z,30.88
2022-08-08T15:39:51.681Z,30.92
2022-08-08T15:42:32.230Z,31.17
2022-08-08T15:45:02.610Z,30.93
2022-08-08T15:47:31.447Z,31.13
2022-08-08T15:50:02.438Z,31.21
2022-08-08T15:52:31.407Z,31.34
2022-08-08T15:55:02.469Z,31.61
2022-08-08T15:57:35.174Z,31.93
2022-08-08T16:00:26.022Z,32.28
2022-08-08T16:03:00.853Z,31.69
2022-08-08T16:05:35.345Z,31.07
2022-08-08T16:08:03.661Z,31.11
2022-08-08T16:13:14.106Z,30.58
2022-08-08T16:13:46.166Z,30.19
2022-08-08T16:16:17.156Z,30.46
2022-08-08T16:18:53.333Z,30.97
2022-08-08T16:21:27.180Z,30.41
2022-08-08T16:23:56.303Z,30.68
2022-08-08T16:26:34.273Z,30.33
2022-08-08T16:29:08.131Z,30.10
2022-08-08T16:31:41.105Z,29.89
2022-08-08T16:34:12.090Z,29.81
2022-08-08T16:36:40.792Z,30.38
2022-08-08T16:39:17.062Z,30.75
2022-08-08T16:42:00.939Z,30.62
2022-08-08T16:44:33.952Z,29.90
2022-08-08T16:47:41.340Z,29.94
2022-08-08T16:50:14.024Z,29.97
2022-08-08T16:55:00.524Z,29.75
2022-08-08T16:55:54.269Z,30.06
2022-08-08T16:58:20.474Z,29.79
2022-08-08T17:00:49.025Z,29.72
2022-08-08T17:03:25.056Z,29.56
2022-08-08T17:06:37.628Z,29.39
2022-08-08T17:08:59.000Z,29.65
2022-08-08T17:11:28.409Z,29.42
2022-08-08T17:14:19.727Z,29.26
2022-08-08T17:16:58.613Z,29.44
2022-08-08T17:19:31.848Z,29.47
2022-08-08T17:22:05.812Z,29.34
2022-08-08T17:24:35.991Z,29.39
2022-08-08T17:27:04.598Z,28.96
2022-08-08T17:29:33.414Z,29.08
2022-08-08T17:32:02.178Z,28.96
2022-08-08T17:34:48.660Z,28.83
2022-08-08T17:37:19.593Z,28.56
2022-08-08T17:40:10.896Z,28.44
2022-08-08T17:42:35.161Z,28.52
2022-08-08T17:45:04.013Z,28.65
2022-08-08T17:47:40.413Z,28.64
2022-08-08T17:50:10.199Z,28.85
2022-08-08T17:52:43.101Z,28.86
2022-08-08T17:56:06.973Z,28.97
2022-08-08T17:57:59.844Z,28.80
2022-08-08T18:00:30.790Z,28.47
2022-08-08T18:03:08.820Z,28.21
2022-08-08T18:05:49.836Z,28.27
2022-08-08T18:08:25.332Z,28.22
2022-08-08T18:11:07.438Z,28.29
2022-08-08T18:13:41.955Z,28.42
2022-08-08T18:16:10.176Z,28.35
2022-08-08T18:18:42.851Z,28.21
2022-08-08T18:21:24.974Z,28.23
2022-08-08T18:24:17.562Z,28.24
2022-08-08T18:26:55.901Z,28.02
2022-08-08T18:29:33.808Z,27.87
2022-08-08T18:32:03.505Z,28.01
2022-08-08T18:34:32.876Z,27.89
2022-08-08T18:37:08.318Z,27.78
2022-08-08T18:39:41.410Z,27.61
2022-08-08T18:42:14.374Z,27.61
2022-08-08T18:44:54.768Z,27.69
2022-08-08T18:47:24.068Z,27.61
2022-08-08T18:49:58.599Z,27.63
2022-08-08T18:52:29.992Z,27.40
2022-08-08T18:55:00.283Z,27.29
2022-08-08T18:57:38.057Z,27.03
2022-08-08T19:00:15.858Z,26.97
2022-08-08T19:02:48.333Z,26.96
2022-08-08T19:05:23.171Z,26.86
2022-08-08T19:07:55.739Z,26.95
2022-08-08T19:10:23.472Z,26.89
2022-08-08T19:12:53.469Z,26.84
2022-08-08T19:15:23.861Z,26.76
2022-08-08T19:18:33.416Z,26.81
2022-08-08T19:20:42.989Z,26.69
2022-08-08T19:23:16.616Z,26.65
2022-08-08T19:26:27.045Z,26.64
2022-08-08T19:28:33.166Z,26.63
2022-08-08T19:31:09.020Z,26.60
2022-08-08T19:33:52.313Z,26.51
2022-08-08T19:36:28.166Z,26.43
2022-08-08T19:38:58.568Z,26.37
2022-08-08T19:41:29.114Z,26.32
2022-08-08T19:44:03.968Z,26.21
2022-08-08T19:46:33.462Z,26.03
2022-08-08T19:49:01.689Z,25.98
2022-08-08T19:51:34.797Z,26.04
2022-08-08T19:54:12.529Z,26.03
2022-08-08T19:56:48.648Z,25.95
2022-08-08T19:59:22.608Z,25.96
2022-08-08T20:02:03.128Z,25.91
2022-08-08T20:04:31.816Z,25.94
2022-08-08T20:07:05.348Z,25.88
2022-08-08T20:09:56.048Z,25.83
2022-08-08T20:12:32.374Z,25.80
2022-08-08T20:15:14.103Z,25.75
2022-08-08T20:17:44.157Z,25.66
2022-08-08T20:20:16.095Z,25.50
2022-08-08T20:22:48.899Z,25.54
2022-08-08T20:25:24.738Z,25.39
2022-08-08T20:27:57.475Z,25.33
2022-08-08T20:30:53.164Z,25.23
2022-08-08T20:35:58.470Z,25.19
2022-08-08T20:38:32.017Z,25.13
2022-08-08T20:41:05.867Z,25.19
2022-08-08T20:43:48.307Z,25.08
2022-08-08T20:46:20.562Z,25.18
2022-08-08T20:48:51.229Z,25.21
2022-08-08T20:51:20.837Z,25.26
2022-08-08T20:53:58.900Z,25.24
2022-08-08T20:56:35.478Z,25.31
2022-08-08T20:59:05.741Z,25.29
2022-08-08T21:02:05.737Z,25.24
2022-08-08T21:04:23.217Z,25.11
2022-08-08T21:06:52.996Z,25.15
2022-08-08T21:09:24.201Z,25.09
2022-08-08T21:12:03.053Z,25.10
2022-08-08T21:14:34.492Z,25.31
2022-08-08T21:17:05.870Z,25.51
2022-08-08T21:19:45.164Z,25.52
2022-08-08T21:22:14.155Z,25.59
2022-08-08T21:24:52.989Z,25.59
2022-08-08T21:28:05.478Z,25.44
2022-08-08T21:30:18.791Z,25.44
2022-08-08T21:32:51.105Z,25.68
2022-08-08T21:36:18.665Z,25.78
2022-08-08T21:38:16.143Z,25.83
2022-08-08T21:40:55.109Z,25.74
2022-08-08T21:43:25.926Z,25.80
2022-08-08T21:48:03.905Z,25.73
2022-08-08T21:48:51.076Z,25.36
2022-08-08T21:51:46.063Z,24.89
2022-08-08T21:54:27.151Z,25.11
2022-08-08T21:57:03.681Z,24.54
2022-08-08T22:00:01.256Z,24.52
2022-08-08T22:02:23.233Z,24.32
2022-08-08T22:04:52.353Z,24.34
2022-08-08T22:07:20.082Z,24.62
2022-08-08T22:09:57.744Z,24.88
2022-08-08T22:12:29.607Z,24.77
2022-08-08T22:15:04.253Z,24.45
2022-08-08T22:17:41.502Z,24.47
2022-08-08T22:20:23.465Z,24.29
2022-08-08T22:22:52.558Z,24.07
2022-08-08T22:25:25.045Z,24.54
2022-08-08T22:28:03.013Z,24.37
2022-08-08T22:30:52.906Z,24.46
2022-08-08T22:34:12.215Z,24.57
2022-08-08T22:36:14.082Z,24.46
2022-08-08T22:38:51.494Z,24.45
2022-08-08T22:41:21.484Z,24.62
2022-08-08T22:44:02.022Z,24.44
2022-08-08T22:46:33.105Z,24.10
2022-08-08T22:49:02.767Z,24.36
2022-08-08T22:51:34.890Z,23.73
2022-08-08T22:54:31.104Z,24.25
2022-08-08T22:56:58.346Z,24.39
2022-08-08T22:59:26.723Z,24.50
2022-08-08T23:02:13.107Z,24.57
2022-08-08T23:04:56.011Z,24.53
2022-08-08T23:07:24.180Z,24.27
2022-08-08T23:10:11.912Z,24.29
2022-08-08T23:12:47.739Z,24.43
2022-08-08T23:16:38.623Z,24.40
2022-08-08T23:18:05.745Z,24.41
2022-08-08T23:20:35.802Z,24.13
2022-08-08T23:23:06.553Z,24.33
2022-08-08T23:25:42.692Z,24.30
2022-08-08T23:28:17.705Z,24.16
2022-08-08T23:30:45.990Z,24.23
2022-08-08T23:33:21.347Z,23.92
2022-08-08T23:36:08.443Z,24.16
2022-08-08T23:38:36.861Z,24.05
2022-08-08T23:41:22.845Z,24.14
2022-08-08T23:43:54.373Z,24.14
2022-08-08T23:49:03.892Z,24.15
2022-08-08T23:49:15.282Z,23.70
2022-08-08T23:52:04.793Z,22.99
2022-08-08T23:54:42.791Z,23.34
2022-08-08T23:57:27.129Z,23.34
